Time;durP1;ratioP1;P1;durP2;ratioP2;P2;SDS_P1;SDS_P2;PMS_P1;PMS_P2;Temp;Humidity;BMP_temperature;BMP_pressure;BME280_temperature;BME280_humidity;BME280_pressure;Samples;Min_cycle;Max_cycle;Signal;HPM_P1;HPM_P2
2022/09/23 00:00:06;;;;;;;45.40;21.00;;;;;;;8.63;87.02;101352.49;5317457;55;1141095;-72
2022/09/23 00:05:14;;;;;;;108.80;22.67;;;;;;;8.42;86.15;101351.42;5198186;56;1139119;-72
2022/09/23 00:10:20;;;;;;;169.60;23.67;;;;;;;8.35;87.21;101359.77;5228521;56;1141144;-72
2022/09/23 00:15:30;;;;;;;48.45;21.62;;;;;;;8.32;87.89;101363.89;5228314;56;1141357;-71
2022/09/23 00:20:35;;;;;;;34.37;17.20;;;;;;;8.27;88.25;101361.46;5193682;56;1141117;-71
2022/09/23 00:25:41;;;;;;;47.30;19.43;;;;;;;8.14;87.39;101353.84;5228450;56;1141335;-72
2022/09/23 00:30:47;;;;;;;31.17;16.97;;;;;;;8.03;87.57;101348.31;5228323;56;1141115;-72
2022/09/23 00:35:59;;;;;;;34.20;16.30;;;;;;;8.01;87.52;101356.29;5227663;55;1141185;-73
2022/09/23 00:41:05;;;;;;;30.47;15.77;;;;;;;7.87;87.28;101349.59;5243970;55;1138922;-72
2022/09/23 00:46:16;;;;;;;31.40;15.83;;;;;;;7.74;87.24;101344.12;5228285;56;1139206;-72
2022/09/23 00:51:26;;;;;;;28.10;13.63;;;;;;;7.65;87.39;101352.95;5257439;55;1139020;-72
2022/09/23 00:56:34;;;;;;;28.47;12.37;;;;;;;7.66;87.67;101335.77;5331662;55;1141121;-72
2022/09/23 01:01:40;;;;;;;29.07;15.00;;;;;;;7.65;87.46;101338.01;5331689;55;1141031;-72
2022/09/23 01:06:46;;;;;;;24.45;12.33;;;;;;;7.68;87.42;101339.64;5331433;55;1141094;-72
2022/09/23 01:12:26;;;;;;;23.23;13.40;;;;;;;7.59;87.34;101336.19;5331812;55;1139246;-72
2022/09/23 01:17:53;;;;;;;21.60;12.93;;;;;;;7.60;87.96;101332.63;5299551;55;1139079;-72
2022/09/23 01:23:38;;;;;;;22.90;11.70;;;;;;;7.49;87.32;101329.67;5331387;55;1136837;-72
2022/09/23 01:29:20;;;;;;;22.10;11.23;;;;;;;7.41;87.61;101330.08;5331479;55;1136911;-72
2022/09/23 01:34:32;;;;;;;25.53;11.73;;;;;;;7.35;87.55;101327.29;5243404;55;1134862;-71
2022/09/23 01:40:01;;;;;;;19.67;12.13;;;;;;;7.13;86.24;101326.70;4998179;58;1140522;-72
2022/09/23 01:45:11;;;;;;;22.73;12.33;;;;;;;6.92;86.48;101333.02;4885264;60;1141065;-71
2022/09/23 01:55:59;;;;;;;48.40;16.43;;;;;;;6.78;87.06;101324.95;5009970;59;1138997;-72
2022/09/23 02:01:07;;;;;;;49.70;20.53;;;;;;;6.59;87.51;101323.67;4971433;59;1138997;-71
2022/09/23 02:06:26;;;;;;;76.33;20.17;;;;;;;6.56;89.02;101319.91;4971407;59;1139023;-72
2022/09/23 02:11:35;;;;;;;32.05;14.80;;;;;;;6.59;90.06;101318.42;5110734;57;1138984;-71
2022/09/23 02:16:48;;;;;;;24.13;11.30;;;;;;;6.70;90.27;101318.31;5133138;57;1141142;-72
2022/09/23 02:21:59;;;;;;;21.70;11.27;;;;;;;6.79;89.85;101314.83;5131182;57;1141121;-72
2022/09/23 02:27:18;;;;;;;27.37;13.60;;;;;;;6.82;89.68;101310.74;5128600;57;1141107;-72
2022/09/23 02:32:56;;;;;;;28.40;14.63;;;;;;;6.79;89.47;101313.05;5130942;57;1141276;-72
2022/09/23 02:38:34;;;;;;;24.47;12.97;;;;;;;6.66;88.95;101301.44;5093819;56;1139090;-71
2022/09/23 02:43:50;;;;;;;22.50;12.00;;;;;;;6.47;88.81;101300.63;5071574;57;1136841;-72
2022/09/23 02:49:01;;;;;;;24.50;11.70;;;;;;;6.40;89.24;101301.39;5067857;57;1137205;-71
2022/09/23 02:54:13;;;;;;;24.67;12.03;;;;;;;6.38;89.73;101303.70;5246609;55;1137253;-72
2022/09/23 02:59:21;;;;;;;26.00;12.33;;;;;;;6.46;89.69;101299.77;5307472;55;1139060;-72
2022/09/23 03:04:49;;;;;;;19.20;11.50;;;;;;;6.57;89.55;101304.03;5234493;55;1138951;-72
2022/09/23 03:10:22;;;;;;;19.30;10.37;;;;;;;6.62;89.88;101298.11;5228637;56;1140998;-72
2022/09/23 03:16:04;;;;;;;19.27;10.60;;;;;;;6.65;89.71;101292.70;5227389;55;1139060;-71
2022/09/23 03:21:18;;;;;;;20.40;11.67;;;;;;;6.50;88.49;101295.23;5228634;56;1139100;-71
2022/09/23 03:26:26;;;;;;;;;;;;;;;6.30;88.62;101290.91;5225456;56;1138969;-72
2022/09/23 03:31:34;;;;;;;21.47;9.50;;;;;;;6.14;88.65;101287.31;5227952;56;972160;-71
2022/09/23 03:36:59;;;;;;;57.73;12.00;;;;;;;6.09;89.33;101282.75;5167947;56;1134771;-73
2022/09/23 03:42:19;;;;;;;104.33;12.50;;;;;;;5.99;88.98;101282.31;5071236;57;1138912;-72
2022/09/23 03:47:29;;;;;;;25.23;11.07;;;;;;;5.69;89.08;101275.80;5139660;57;1141272;-72
2022/09/23 03:52:38;;;;;;;143.17;13.10;;;;;;;5.76;90.98;101275.94;5186287;56;1141112;-71
2022/09/23 03:57:44;;;;;;;62.87;17.33;;;;;;;5.90;91.58;101276.19;5195491;56;1143200;-71
2022/09/23 04:02:49;;;;;;;50.70;15.53;;;;;;;5.99;91.90;101270.03;5142335;57;1139066;-73
2022/09/23 04:07:55;;;;;;;35.83;14.53;;;;;;;5.90;91.16;101265.69;5143932;57;1139106;-72
2022/09/23 04:13:01;;;;;;;31.37;13.57;;;;;;;5.87;91.75;101265.78;5142519;57;1139006;-72
2022/09/23 04:18:07;;;;;;;36.03;12.10;;;;;;;5.87;91.81;101257.91;5158555;56;1139024;-71
2022/09/23 04:23:13;;;;;;;45.83;14.67;;;;;;;5.88;91.56;101259.62;5228713;55;1139018;-72
2022/09/23 04:28:19;;;;;;;22.83;10.43;;;;;;;5.92;91.28;101255.51;5228557;55;1139059;-72
2022/09/23 04:33:26;;;;;;;25.67;11.63;;;;;;;5.97;91.09;101252.19;5286749;55;1141066;-72
2022/09/23 04:38:32;;;;;;;41.33;11.20;;;;;;;5.97;90.64;101255.27;5097665;56;1139001;-73
2022/09/23 04:43:38;;;;;;;47.03;12.33;;;;;;;5.85;90.23;101254.50;5165717;56;1137141;-72
2022/09/23 04:48:44;;;;;;;33.13;11.33;;;;;;;5.70;89.94;101247.33;5156344;56;1136952;-71
2022/09/23 04:53:52;;;;;;;34.03;11.67;;;;;;;5.58;90.28;101253.53;5205602;56;1136906;-72
2022/09/23 04:59:00;;;;;;;43.00;13.00;;;;;;;5.59;90.77;101253.08;5228585;56;1136940;-72
2022/09/23 05:04:12;;;;;;;35.93;12.27;;;;;;;5.58;90.75;101257.47;5228493;56;1136944;-71
2022/09/23 05:09:18;;;;;;;55.43;13.40;;;;;;;5.56;90.53;101254.06;5228405;56;1136992;-71
2022/09/23 05:14:24;;;;;;;129.60;17.13;;;;;;;5.49;90.68;101257.90;5227125;56;1139239;-72
2022/09/23 05:19:30;;;;;;;117.57;15.40;;;;;;;5.39;91.34;101263.59;5221908;55;1139073;-71
2022/09/23 05:24:36;;;;;;;74.17;11.17;;;;;;;5.28;92.88;101254.44;5142321;57;1139004;-72
2022/09/23 05:29:42;;;;;;;79.77;12.03;;;;;;;5.28;92.88;101254.44;5142522;57;1136946;-73
2022/09/23 05:34:47;;;;;;;69.30;12.47;;;;;;;5.45;93.30;101258.09;5082179;57;1139041;-72
2022/09/23 05:39:53;;;;;;;82.70;12.93;;;;;;;5.60;94.11;101258.72;5141670;56;1139071;-71
2022/09/23 05:44:59;;;;;;;36.23;11.57;;;;;;;5.72;94.58;101265.17;5141158;56;1137029;-72
2022/09/23 05:50:05;;;;;;;40.23;14.20;;;;;;;5.76;94.81;101263.66;5184426;55;1136868;-71
2022/09/23 05:55:11;;;;;;;52.10;12.53;;;;;;;5.87;95.33;101257.91;5183766;55;1138387;-71
2022/09/23 06:00:17;;;;;;;43.07;15.23;;;;;;;6.07;96.12;101259.65;5142192;56;1136967;-71
2022/09/23 06:05:23;;;;;;;45.13;17.63;;;;;;;6.29;97.10;101257.69;5108553;57;1137160;-72
2022/09/23 06:10:29;;;;;;;42.20;17.40;;;;;;;6.56;97.76;101253.75;5180223;56;21159;-72
2022/09/23 06:15:36;;;;;;;32.13;14.23;;;;;;;6.84;98.32;101257.63;5218943;56;1136841;-72
2022/09/23 06:20:42;;;;;;;44.67;15.63;;;;;;;7.18;99.32;101254.95;5222497;56;1140772;-71
2022/09/23 06:25:48;;;;;;;45.30;17.60;;;;;;;7.62;100.00;101255.27;5142127;57;1141100;-73
2022/09/23 06:31:06;;;;;;;30.17;13.87;;;;;;;7.78;98.31;101259.25;5142223;57;1142792;-72
2022/09/23 06:36:14;;;;;;;33.20;14.40;;;;;;;7.88;98.27;101257.80;5166133;56;1140918;-72
2022/09/23 06:41:20;;;;;;;38.10;16.20;;;;;;;7.92;98.63;101255.39;5228145;56;1141084;-71
2022/09/23 06:46:26;;;;;;;41.93;20.53;;;;;;;8.05;99.35;101251.14;5144056;56;1141054;-72
2022/09/23 06:51:33;;;;;;;41.17;19.83;;;;;;;8.40;100.00;101252.30;5161041;56;1141100;-72
2022/09/23 06:56:39;;;;;;;50.87;21.07;;;;;;;8.90;100.00;101242.76;5246356;55;1143458;-72
2022/09/23 07:01:46;;;;;;;32.50;14.03;;;;;;;9.47;100.00;101238.39;5317823;55;1143123;-71
2022/09/23 07:06:54;;;;;;;22.30;11.73;;;;;;;9.89;100.00;101232.72;5294047;55;1143423;-73
2022/09/23 07:12:02;;;;;;;24.83;10.60;;;;;;;10.35;100.00;101228.47;5228834;56;1143475;-72
2022/09/23 07:17:07;;;;;;;22.30;9.60;;;;;;;10.74;100.00;101227.14;5263636;55;1145319;-73
2022/09/23 07:22:13;;;;;;;15.93;8.73;;;;;;;11.07;100.00;101226.67;5228672;56;1143153;-73
2022/09/23 07:27:19;;;;;;;14.87;7.00;;;;;;;11.39;100.00;101219.63;5228561;56;1143344;-73
2022/09/23 07:32:24;;;;;;;10.30;6.23;;;;;;;11.75;100.00;101225.47;5229277;56;1143215;-73
2022/09/23 07:37:30;;;;;;;7.30;5.70;;;;;;;12.10;100.00;101225.59;5228890;56;1143356;-71
2022/09/23 07:42:36;;;;;;;6.77;4.63;;;;;;;12.83;100.00;101225.47;5238164;55;1141320;-73
2022/09/23 07:47:42;;;;;;;7.20;5.15;;;;;;;12.83;100.00;101225.47;5155211;56;1141702;-71
2022/09/23 07:52:52;;;;;;;7.27;4.37;;;;;;;12.97;100.00;101234.55;5278756;55;1141288;-71
2022/09/23 07:57:58;;;;;;;4.30;3.33;;;;;;;13.17;99.81;101231.23;5317726;55;1141084;-72
2022/09/23 08:03:04;;;;;;;6.93;5.03;;;;;;;13.36;98.42;101234.16;5278529;55;1139164;-72
2022/09/23 08:08:12;;;;;;;7.60;4.27;;;;;;;13.61;98.90;101228.23;5229654;56;1139001;-72
2022/09/23 08:13:18;;;;;;;5.63;2.67;;;;;;;13.84;97.18;101230.41;5229179;55;1139025;-72
2022/09/23 08:18:24;;;;;;;5.10;3.40;;;;;;;14.00;95.96;101230.39;5228714;55;1139352;-72
2022/09/23 08:23:32;;;;;;;3.57;2.27;;;;;;;14.09;95.15;101231.45;5228395;56;1138835;-72
2022/09/23 08:28:39;;;;;;;2.00;1.70;;;;;;;14.08;94.54;101234.59;5228828;56;1139003;-72
2022/09/23 08:33:46;;;;;;;2.37;1.60;;;;;;;14.12;93.06;101229.03;5228909;56;1139056;-71
2022/09/23 08:38:53;;;;;;;1.60;1.50;;;;;;;14.03;93.50;101224.84;5229321;56;1139278;-71
2022/09/23 08:44:15;;;;;;;4.33;1.63;;;;;;;14.32;92.13;101222.45;5193308;56;1139029;-72
2022/09/23 08:49:28;;;;;;;2.80;2.20;;;;;;;14.43;92.33;101219.78;5141519;56;1137092;-72
2022/09/23 08:54:34;;;;;;;2.03;1.80;;;;;;;14.43;89.39;101216.27;5221266;56;1137279;-73
2022/09/23 08:59:43;;;;;;;3.53;2.47;;;;;;;14.45;89.81;101218.33;5200269;55;1136994;-72
2022/09/23 09:04:52;;;;;;;2.27;1.70;;;;;;;14.67;89.79;101220.03;5142565;56;1137120;-72
2022/09/23 09:10:21;;;;;;;1.97;1.53;;;;;;;15.07;89.62;101209.54;5143038;57;1137080;-73
2022/09/23 09:15:30;;;;;;;1.50;1.40;;;;;;;15.05;83.92;101212.81;5177067;56;1136938;-73
2022/09/23 09:20:57;;;;;;;0.77;0.77;;;;;;;14.97;84.98;101206.80;5224012;55;1136702;-71
2022/09/23 09:26:04;;;;;;;1.67;1.00;;;;;;;14.82;83.49;101201.95;5224508;56;1135151;-72
2022/09/23 09:31:32;;;;;;;7.07;2.50;;;;;;;15.06;84.54;101192.70;5203942;56;1139141;-74
2022/09/23 09:37:05;;;;;;;0.80;0.80;;;;;;;15.02;81.69;101194.42;5227038;56;1138973;-72
2022/09/23 09:42:19;;;;;;;8.20;4.53;;;;;;;15.23;83.11;101190.41;5229132;55;1138969;-73
2022/09/23 09:47:48;;;;;;;2.33;1.47;;;;;;;15.26;81.61;101192.33;5208396;56;1138974;-72
2022/09/23 09:52:58;;;;;;;1.77;1.10;;;;;;;15.12;80.25;101186.84;5192206;56;1139182;-73
2022/09/23 09:58:06;;;;;;;0.77;0.77;;;;;;;14.75;79.38;101193.14;5165566;56;1139463;-73
2022/09/23 10:03:25;;;;;;;1.30;1.20;;;;;;;14.51;79.45;101188.55;5201336;56;1139082;-71
2022/09/23 10:08:35;;;;;;;9.10;5.43;;;;;;;14.40;81.15;101184.59;5199193;56;1138961;-72
2022/09/23 10:13:43;;;;;;;7.33;4.63;;;;;;;14.40;81.39;101176.60;5165183;56;1139080;-72
2022/09/23 10:18:54;;;;;;;1.43;0.83;;;;;;;14.49;81.53;101171.86;5180678;56;1138698;-73
2022/09/23 10:24:00;;;;;;;0.93;0.77;;;;;;;14.58;79.10;101168.41;5244316;56;1139120;-66
2022/09/23 10:29:31;;;;;;;1.97;0.70;;;;;;;14.69;79.29;101169.68;5242680;56;1139342;-71
2022/09/23 10:34:37;;;;;;;0.87;0.87;;;;;;;14.86;80.54;101154.09;5180555;56;1138980;-70
2022/09/23 10:50:52;;;;;;;1.00;0.97;;;;;;;15.48;71.58;101142.81;5124706;57;1137110;-67
2022/09/23 10:56:16;;;;;;;3.83;1.00;;;;;;;15.58;70.42;101136.72;5114903;57;1136974;-65
2022/09/23 11:02:01;;;;;;;5.03;1.50;;;;;;;15.31;71.14;101135.95;5132208;57;1135268;-65
2022/09/23 11:07:22;;;;;;;0.60;0.60;;;;;;;15.17;73.01;101128.31;5155961;56;1139003;-67
2022/09/23 11:12:56;;;;;;;1.40;1.23;;;;;;;15.40;71.40;101116.01;5138982;57;1139261;-66
2022/09/23 11:18:33;;;;;;;0.70;0.70;;;;;;;15.45;69.12;101115.09;5083076;57;1139000;-68
2022/09/23 11:23:55;;;;;;;1.33;1.10;;;;;;;15.38;69.01;101107.79;5038252;58;1139071;-66
2022/09/23 11:29:14;;;;;;;2.73;1.30;;;;;;;15.23;69.70;101097.99;5072189;58;1139189;-64
2022/09/23 11:34:56;;;;;;;0.63;0.50;;;;;;;15.26;70.05;101091.55;5061661;58;1138978;-68
2022/09/23 11:40:29;;;;;;;2.57;0.70;;;;;;;15.30;70.40;101091.13;5149221;57;1137046;-66
2022/09/23 11:45:45;;;;;;;1.05;0.95;;;;;;;15.29;70.48;101087.27;5155579;56;1136940;-65
2022/09/23 11:51:13;;;;;;;7.57;0.97;;;;;;;15.51;70.04;101083.05;5170479;55;1136948;-66
2022/09/23 11:56:34;;;;;;;1.33;0.80;;;;;;;15.81;69.92;101070.15;5210296;55;1137196;-68
2022/09/23 12:01:46;;;;;;;1.75;1.20;;;;;;;16.00;67.50;101074.17;5249870;55;1138956;-67
2022/09/23 12:07:11;;;;;;;0.97;0.90;;;;;;;16.14;68.26;101068.89;5145655;55;1138966;-64
2022/09/23 12:12:38;;;;;;;3.10;0.80;;;;;;;16.11;70.22;101066.50;5216295;56;1139007;-68
2022/09/23 12:17:55;;;;;;;1.73;1.00;;;;;;;16.35;71.63;101055.37;5152031;56;1139064;-67
2022/09/23 12:23:05;;;;;;;0.58;0.52;;;;;;;16.41;65.22;101050.31;5208808;55;1138968;-66
2022/09/23 12:28:30;;;;;;;1.03;0.60;;;;;;;16.39;67.33;101038.08;5194034;55;1139057;-66
2022/09/23 12:33:37;;;;;;;1.53;1.40;;;;;;;16.29;66.12;101035.45;5212777;55;1138988;-66
2022/09/23 12:39:00;;;;;;;1.00;0.90;;;;;;;16.32;66.15;101035.66;5192590;55;1139101;-64
2022/09/23 12:44:16;;;;;;;1.00;1.00;;;;;;;16.32;66.71;101036.50;5180442;56;1138970;-65
2022/09/23 12:49:32;;;;;;;4.97;1.40;;;;;;;16.34;67.25;101029.20;5270660;55;1138921;-66
2022/09/23 12:54:41;;;;;;;0.83;0.83;;;;;;;16.61;66.91;101022.23;5246138;54;1138917;-71
2022/09/23 13:00:00;;;;;;;1.28;1.02;;;;;;;16.76;66.51;101016.80;5199597;56;1139005;-68
2022/09/23 13:10:55;;;;;;;2.03;0.93;;;;;;;17.07;64.59;101008.00;5214872;56;1136959;-68
2022/09/23 13:16:24;;;;;;;2.30;1.30;;;;;;;17.13;65.37;101007.39;5227056;56;1137184;-66
2022/09/23 13:21:50;;;;;;;1.60;1.50;;;;;;;17.00;65.30;101001.55;5220753;56;1137142;-68
2022/09/23 13:27:28;;;;;;;2.33;1.03;;;;;;;17.07;65.62;100994.64;5205905;56;1135088;-67
2022/09/23 13:32:38;;;;;;;4.97;0.87;;;;;;;17.08;64.83;100985.63;5223862;56;1139329;-66
2022/09/23 13:37:47;;;;;;;6.27;3.03;;;;;;;17.17;65.18;100979.37;5180813;56;1138941;-66
2022/09/23 13:43:05;;;;;;;6.07;1.33;;;;;;;17.22;63.44;100978.44;5217394;56;1138996;-67
2022/09/23 13:48:14;;;;;;;2.97;1.87;;;;;;;17.08;64.78;100970.94;5227010;56;1138946;-67
2022/09/23 13:53:27;;;;;;;4.87;2.47;;;;;;;16.99;64.44;100963.80;5206962;56;1138996;-66
2022/09/23 13:58:35;;;;;;;1.40;1.30;;;;;;;16.88;65.01;100956.83;5217866;55;1139170;-67
2022/09/23 14:03:43;;;;;;;2.20;1.60;;;;;;;16.86;65.50;100958.31;5230608;56;1139249;-64
2022/09/23 14:08:50;;;;;;;24.33;14.63;;;;;;;16.75;62.08;100945.66;5227979;56;1138998;-65
2022/09/23 14:13:57;;;;;;;4.43;1.90;;;;;;;16.61;63.04;100945.63;5228126;56;1143126;-67
2022/09/23 14:19:06;;;;;;;8.53;7.70;;;;;;;16.48;63.78;100938.45;5228203;56;1139041;-65
2022/09/23 14:24:31;;;;;;;4.83;1.67;;;;;;;16.40;63.98;100933.83;5191021;56;1139057;-66
2022/09/23 14:29:48;;;;;;;1.00;1.00;;;;;;;16.39;63.82;100937.48;5137532;57;1139046;-66
2022/09/23 14:35:08;;;;;;;1.83;1.30;;;;;;;16.41;63.83;100930.66;5137464;57;1138967;-67
2022/09/23 14:40:33;;;;;;;1.10;1.00;;;;;;;16.48;63.92;100929.10;5107072;57;1139122;-66
2022/09/23 14:45:41;;;;;;;3.90;1.97;;;;;;;16.58;63.47;100915.70;5166784;56;1136991;-65
2022/09/23 14:50:56;;;;;;;8.03;3.90;;;;;;;16.68;64.08;100905.83;5155288;56;1137137;-65
2022/09/23 14:56:18;;;;;;;4.60;2.07;;;;;;;16.76;63.71;100896.09;5228029;56;1137080;-66
2022/09/23 15:01:34;;;;;;;4.60;2.30;;;;;;;16.80;63.45;100896.12;5208927;56;1136945;-66
2022/09/23 15:06:47;;;;;;;15.23;6.70;;;;;;;16.79;63.75;100900.30;5149702;56;1136978;-66
2022/09/23 15:11:59;;;;;;;56.85;28.90;;;;;;;16.73;63.06;100900.89;5218085;56;1139123;-67
2022/09/23 15:17:09;;;;;;;23.63;11.97;;;;;;;16.66;62.58;100893.11;5209082;56;1141054;-68
2022/09/23 15:22:15;;;;;;;453.03;179.60;;;;;;;16.58;63.46;100888.50;5216462;56;1139092;-65
2022/09/23 15:27:31;;;;;;;75.37;31.77;;;;;;;16.54;64.39;100887.95;5221065;56;21255;-67
2022/09/23 15:32:39;;;;;;;41.30;22.80;;;;;;;16.46;64.52;100883.86;5180150;56;1138946;-68
2022/09/23 15:37:46;;;;;;;95.93;63.30;;;;;;;16.43;65.35;100887.31;5213274;54;1143159;-64
2022/09/23 15:42:57;;;;;;;98.84;59.22;;;;;;;16.34;65.55;100881.05;5229244;55;1143144;-67
2022/09/23 15:48:07;;;;;;;64.70;29.30;;;;;;;16.30;65.89;100882.31;5246976;55;1143019;-69
2022/09/23 15:53:20;;;;;;;103.13;40.60;;;;;;;16.30;66.37;100878.31;5256217;55;1143158;-65
2022/09/23 15:58:27;;;;;;;87.17;38.60;;;;;;;16.28;66.35;100880.28;5242559;55;1145235;-64
2022/09/23 16:03:34;;;;;;;101.53;48.97;;;;;;;16.24;67.28;100875.38;5243495;55;1142620;-65
2022/09/23 16:08:41;;;;;;;96.20;49.03;;;;;;;16.28;68.19;100876.28;5238221;55;1145232;-65
2022/09/23 16:13:48;;;;;;;74.43;39.07;;;;;;;16.26;68.78;100871.58;5246975;55;1143402;-66
2022/09/23 16:18:54;;;;;;;43.37;21.27;;;;;;;16.12;69.57;100866.72;5234861;55;1143133;-65
2022/09/23 16:24:00;;;;;;;49.10;26.50;;;;;;;16.02;70.50;100870.77;5245643;55;1143393;-68
2022/09/23 16:29:08;;;;;;;78.77;46.47;;;;;;;15.92;71.33;100869.94;5244774;55;1143297;-65
2022/09/23 16:34:14;;;;;;;157.00;89.00;;;;;;;15.74;72.03;100864.50;5211054;55;1143443;-65
2022/09/23 16:39:21;;;;;;;63.80;35.93;;;;;;;15.60;72.17;100869.44;5237780;55;1145219;-67
2022/09/23 16:44:27;;;;;;;109.13;63.93;;;;;;;15.45;71.68;100863.67;5237271;55;1142411;-64
2022/09/23 16:49:33;;;;;;;109.53;57.27;;;;;;;15.34;72.14;100857.17;5237921;55;1145206;-66
2022/09/23 16:54:40;;;;;;;90.97;37.50;;;;;;;15.32;73.04;100860.46;5270400;55;1145292;-66
2022/09/23 17:05:15;;;;;;;65.87;24.93;;;;;;;15.09;74.43;100858.59;5222645;56;1143348;-64
2022/09/23 17:10:19;;;;;;;107.33;34.10;;;;;;;14.97;75.09;100853.05;5216724;56;1143168;-65
2022/09/23 17:15:25;;;;;;;96.87;24.73;;;;;;;14.80;75.49;100851.91;5222735;56;1145250;-66
2022/09/23 17:20:30;;;;;;;72.40;25.60;;;;;;;14.60;76.13;100854.17;5213399;56;1143087;-67
2022/09/23 17:25:37;;;;;;;74.07;20.67;;;;;;;14.49;76.54;100853.80;5202266;56;1143468;-65
2022/09/23 17:30:42;;;;;;;45.53;17.10;;;;;;;14.38;76.93;100850.70;5228212;56;1143170;-66
2022/09/23 17:35:48;;;;;;;37.77;14.30;;;;;;;14.30;77.24;100860.36;5230121;55;1143348;-66
2022/09/23 17:40:58;;;;;;;53.73;24.77;;;;;;;14.17;77.76;100866.40;5242583;55;1143396;-68
2022/09/23 17:46:08;;;;;;;138.83;60.47;;;;;;;14.02;78.49;100857.93;5241955;55;1143162;-65
2022/09/23 17:51:18;;;;;;;54.73;23.40;;;;;;;13.83;78.64;100865.31;5250765;55;1143222;-64
2022/09/23 17:56:32;;;;;;;24.37;9.50;;;;;;;13.66;78.73;100865.42;5250361;55;1141283;-66
2022/09/23 18:01:34;;;;;;;17.03;7.23;;;;;;;13.49;79.69;100860.69;5120825;57;1139231;-66
2022/09/23 18:06:40;;;;;;;15.87;8.00;;;;;;;13.37;79.57;100861.72;5121021;56;1139105;-66
2022/09/23 18:11:52;;;;;;;16.90;7.43;;;;;;;13.35;80.08;100859.67;5238510;55;1139072;-68
2022/09/23 18:16:55;;;;;;;14.27;8.03;;;;;;;13.36;80.71;100860.03;5247089;55;1138978;-67
2022/09/23 18:22:00;;;;;;;16.97;8.57;;;;;;;13.26;80.77;100861.30;5272238;55;1139011;-71
2022/09/23 18:27:06;;;;;;;11.17;7.10;;;;;;;13.13;81.07;100856.63;5247265;56;1138952;-68
2022/09/23 18:32:12;;;;;;;14.60;7.75;;;;;;;13.04;81.21;100852.89;5249412;55;1139234;-65
2022/09/23 18:37:18;;;;;;;28.70;15.87;;;;;;;12.85;81.34;100851.39;5250183;55;1139108;-71
2022/09/23 18:42:25;;;;;;;18.70;13.33;;;;;;;12.73;81.44;100857.70;5250133;56;1141370;-66
2022/09/23 18:52:54;;;;;;;;;;;;;;;12.69;82.37;100853.12;5187374;56;1137130;-67
2022/09/23 18:57:59;;;;;;;30.87;15.23;;;;;;;12.68;82.58;100854.08;5146687;56;972266;-67
2022/09/23 19:03:06;;;;;;;43.57;24.33;;;;;;;12.58;82.98;100846.52;5209013;56;21107;-66
2022/09/23 19:08:12;;;;;;;50.27;25.90;;;;;;;12.49;83.30;100847.27;5186116;56;1139196;-67
2022/09/23 19:13:18;;;;;;;66.00;27.67;;;;;;;12.40;83.39;100841.84;5163127;56;1143137;-66
2022/09/23 19:18:25;;;;;;;48.10;21.93;;;;;;;12.41;83.62;100836.90;5108202;57;1143157;-66
2022/09/23 19:23:33;;;;;;;48.00;21.33;;;;;;;12.43;83.77;100834.97;5140778;57;1143335;-65
2022/09/23 19:28:40;;;;;;;45.47;20.03;;;;;;;12.40;83.89;100839.19;5217884;56;1143137;-67
2022/09/23 19:33:56;;;;;;;50.57;22.90;;;;;;;12.40;83.94;100839.19;5203469;55;1143179;-64
2022/09/23 19:39:05;;;;;;;37.20;19.67;;;;;;;12.30;83.83;100845.72;5210110;56;1143250;-67
2022/09/23 19:44:10;;;;;;;33.80;15.47;;;;;;;12.24;84.20;100843.55;5116893;57;1143127;-65
2022/09/23 19:49:19;;;;;;;48.50;13.40;;;;;;;12.27;84.40;100847.28;5105656;57;1143190;-67
2022/09/23 19:54:26;;;;;;;31.43;13.57;;;;;;;12.29;84.32;100848.01;5164863;56;1143166;-67
2022/09/23 19:59:32;;;;;;;40.67;16.23;;;;;;;12.29;84.85;100842.22;5158365;56;1143184;-68
2022/09/23 20:04:38;;;;;;;32.83;14.70;;;;;;;12.31;85.03;100835.48;5159326;56;1143040;-68
2022/09/23 20:09:44;;;;;;;41.67;19.67;;;;;;;12.31;85.04;100836.80;5157520;56;1143197;-64
2022/09/23 20:14:50;;;;;;;39.27;21.30;;;;;;;12.23;84.83;100837.88;5079333;57;1143435;-68
2022/09/23 20:19:56;;;;;;;39.33;20.83;;;;;;;12.22;85.50;100830.91;5017028;58;1143219;-65
2022/09/23 20:25:03;;;;;;;63.67;26.63;;;;;;;12.23;85.71;100821.48;5186595;56;1143349;-69
2022/09/23 20:30:10;;;;;;;59.90;28.17;;;;;;;12.21;85.67;100815.97;5150728;56;1143206;-66
2022/09/23 20:35:16;;;;;;;56.83;23.97;;;;;;;12.20;85.79;100812.95;5197080;56;1143393;-68
2022/09/23 20:40:23;;;;;;;67.40;31.47;;;;;;;12.20;85.71;100813.80;5152871;56;1143248;-68
2022/09/23 20:45:29;;;;;;;56.33;28.30;;;;;;;11.96;85.34;100819.70;5142422;56;1143174;-69
2022/09/23 20:50:34;;;;;;;34.13;14.97;;;;;;;11.95;86.37;100816.20;5152257;56;1143194;-66
2022/09/23 20:55:57;;;;;;;39.67;21.50;;;;;;;11.93;86.75;100816.80;5228330;56;1143169;-67
2022/09/23 21:01:10;;;;;;;33.57;15.60;;;;;;;11.93;86.81;100811.50;5217589;56;1142526;-64
2022/09/23 21:06:18;;;;;;;36.63;18.10;;;;;;;11.93;86.89;100814.15;5144234;57;1143160;-66
2022/09/23 21:11:25;;;;;;;31.73;17.77;;;;;;;12.02;87.20;100819.23;5205362;55;1143437;-64
2022/09/23 21:16:31;;;;;;;26.63;13.60;;;;;;;12.08;87.23;100817.88;5242112;55;1143213;-69
2022/09/23 21:21:38;;;;;;;35.23;15.47;;;;;;;12.08;86.88;100807.27;5321226;55;1143173;-65
2022/09/23 21:26:46;;;;;;;39.40;16.80;;;;;;;12.09;86.80;100814.27;5331564;55;1143148;-65
2022/09/23 21:31:51;;;;;;;62.10;31.27;;;;;;;12.12;86.43;100824.16;5331449;55;1143357;-66
2022/09/23 21:36:56;;;;;;;45.20;21.87;;;;;;;12.11;86.14;100818.97;5331600;55;1143278;-67
2022/09/23 21:42:02;;;;;;;47.30;21.13;;;;;;;12.06;85.89;100811.40;5325182;55;1141035;-69
2022/09/23 21:47:08;;;;;;;35.83;16.33;;;;;;;12.01;85.86;100810.91;5190492;56;1140881;-68
2022/09/23 21:52:14;;;;;;;34.60;16.27;;;;;;;11.96;85.74;100806.44;5260273;55;1141178;-67
2022/09/23 21:57:24;;;;;;;31.07;17.43;;;;;;;11.94;85.55;100814.99;5241681;56;1141095;-68
2022/09/23 22:02:30;;;;;;;19.27;9.70;;;;;;;11.86;85.92;100805.48;5281965;55;1141110;-64
2022/09/23 22:07:39;;;;;;;20.03;10.80;;;;;;;11.90;85.56;100798.52;5328015;55;1138989;-66
2022/09/23 22:12:49;;;;;;;26.30;13.27;;;;;;;11.99;85.59;100799.58;5236550;55;1141221;-67
2022/09/23 22:17:56;;;;;;;17.32;8.98;;;;;;;12.06;85.84;100799.47;5214988;56;1141119;-67
2022/09/23 22:23:02;;;;;;;13.87;8.17;;;;;;;12.10;84.82;100786.79;5216843;56;1139231;-64
2022/09/23 22:33:31;;;;;;;14.10;8.27;;;;;;;12.07;84.16;100795.02;5138907;57;1139077;-67
2022/09/23 22:38:40;;;;;;;15.97;8.87;;;;;;;12.02;83.42;100791.39;5231380;55;1138923;-65
2022/09/23 22:43:46;;;;;;;17.57;9.13;;;;;;;11.95;83.52;100777.77;5318295;55;1137166;-64
2022/09/23 22:48:52;;;;;;;15.67;9.10;;;;;;;11.92;83.50;100777.16;5316535;55;1262083;-68
2022/09/23 22:53:58;;;;;;;14.20;8.30;;;;;;;11.88;83.54;100772.61;5318614;55;1141081;-66
2022/09/23 22:59:08;;;;;;;12.03;7.90;;;;;;;11.89;83.53;100772.97;5318517;55;1141032;-64
2022/09/23 23:04:14;;;;;;;16.20;8.37;;;;;;;11.97;83.74;100778.49;5215931;55;1141093;-67
2022/09/23 23:09:20;;;;;;;18.70;8.37;;;;;;;12.04;83.77;100770.91;5200263;55;1141221;-67
2022/09/23 23:14:26;;;;;;;14.13;8.27;;;;;;;12.07;83.62;100775.13;5243049;56;1141068;-65
2022/09/23 23:19:32;;;;;;;17.00;8.17;;;;;;;12.05;83.42;100763.32;5282433;55;1141057;-67
2022/09/23 23:24:38;;;;;;;23.53;9.50;;;;;;;12.04;83.57;100762.95;5327628;55;1141092;-66
2022/09/23 23:29:44;;;;;;;21.57;10.30;;;;;;;11.97;83.29;100763.07;5327258;55;1141108;-67
2022/09/23 23:34:50;;;;;;;20.70;11.30;;;;;;;11.86;83.16;100763.09;5327480;55;1143129;-67
2022/09/23 23:39:56;;;;;;;25.27;9.80;;;;;;;11.79;83.58;100758.73;5331872;55;1143060;-68
2022/09/23 23:45:01;;;;;;;18.90;9.27;;;;;;;11.77;83.68;100761.14;5242647;56;1141204;-68
2022/09/23 23:50:08;;;;;;;17.87;8.27;;;;;;;11.80;83.75;100756.45;5242303;56;1141093;-65
2022/09/23 23:55:15;;;;;;;19.80;9.23;;;;;;;11.87;83.80;100755.02;5237881;56;1141101;-66
